TA1PB-13 Weather Reports


time (UTC)temp
C
wind
direction
speed
KPH
gust
KPH
rain 1hr
cm
rain 24hr
cm
rain mn
cm
humidity
%
barometer
mb
20260506081202 16 206 3.2 0.0 0.00 0.00 0.00 64 1016.0
20260506081002 16 206 3.2 0.0 0.00 0.00 0.00 64 1016.0
20260506080802 16 206 3.2 0.0 0.00 0.00 0.00 64 1016.0
20260506080603 16 206 3.2 0.0 0.00 0.00 0.00 64 1016.0
20260506080402 15 206 1.6 0.0 0.00 0.00 0.00 64 1016.0
20260506080202 15 206 1.6 0.0 0.00 0.00 0.00 64 1016.0
20260506073402 14 170 1.6 0.0 0.00 0.00 0.00 65 1016.0
20260506073202 14 170 1.6 0.0 0.00 0.00 0.00 65 1016.0
20260506073002 14 170 1.6 0.0 0.00 0.00 0.00 65 1016.0
20260506072802 14 170 1.6 0.0 0.00 0.00 0.00 65 1016.0
20260506072603 15 170 3.2 0.0 0.00 0.00 0.00 65 1016.0
20260506072403 15 170 3.2 0.0 0.00 0.00 0.00 65 1016.0
20260506072202 15 170 3.2 0.0 0.00 0.00 0.00 65 1016.0
20260506072002 15 170 3.2 0.0 0.00 0.00 0.00 65 1016.0
20260506071802 15 170 3.2 0.0 0.00 0.00 0.00 65 1016.0
20260506071602 15 170 3.2 0.0 0.00 0.00 0.00 65 1016.0
20260506071402 13 170 1.6 0.0 0.00 0.00 0.00 67 1016.0
20260506071202 13 170 3.2 0.0 0.00 0.00 0.00 67 1016.0
20260506071003 13 170 3.2 0.0 0.00 0.00 0.00 67 1016.0
20260506070803 13 170 3.2 0.0 0.00 0.00 0.00 67 1016.0
20260506070602 13 170 3.2 0.0 0.00 0.00 0.00 67 1016.0
20260506070402 13 170 3.2 0.0 0.00 0.00 0.00 67 1016.0
20260506070202 13 170 3.2 0.0 0.00 0.00 0.00 67 1016.0
20260506062402 12 130 1.6 0.0 0.00 0.00 0.00 70 1017.0
20260506062202 10 130 1.6 0.0 0.00 0.00 0.00 70 1017.0
20260506062003 10 130 1.6 0.0 0.00 0.00 0.00 70 1017.0
20260506061802 10 130 1.6 0.0 0.00 0.00 0.00 70 1017.0
20260506061602 10 130 1.6 0.0 0.00 0.00 0.00 70 1017.0
20260506061402 11 130 1.6 0.0 0.00 0.00 0.00 70 1017.0
20260506061202 11 130 1.6 0.0 0.00 0.00 0.00 70 1017.0
20260506061002 11 130 1.6 0.0 0.00 0.00 0.00 70 1017.0
20260506060802 11 130 1.6 0.0 0.00 0.00 0.00 70 1017.0
20260506060602 11 130 1.6 0.0 0.00 0.00 0.00 70 1017.0
20260506060402 11 130 1.6 0.0 0.00 0.00 0.00 70 1017.0
20260506060202 10 130 1.6 0.0 0.00 0.00 0.00 70 1017.0
20260506051402 9 102 0.0 0.0 0.00 0.00 0.00 75 1017.0
20260506051202 9 102 0.0 0.0 0.00 0.00 0.00 75 1017.0
20260506051002 9 102 0.0 0.0 0.00 0.00 0.00 75 1017.0
20260506050802 8 102 0.0 0.0 0.00 0.00 0.00 75 1017.0
20260506050602 8 102 0.0 0.0 0.00 0.00 0.00 75 1017.0
20260506050403 8 102 0.0 0.0 0.00 0.00 0.00 75 1017.0
20260506050203 8 102 0.0 0.0 0.00 0.00 0.00 75 1017.0
20260506045002 8 102 0.0 0.0 0.00 0.00 0.00 75 1017.0
20260506044803 8 102 0.0 0.0 0.00 0.00 0.00 75 1017.0
20260506044603 8 102 0.0 0.0 0.00 0.00 0.00 75 1017.0
20260506044402 8 102 0.0 0.0 0.00 0.00 0.00 75 1017.0
20260506044202 8 102 0.0 0.0 0.00 0.00 0.00 75 1017.0
20260506044002 8 102 0.0 0.0 0.00 0.00 0.00 75 1017.0
20260506043802 8 102 0.0 0.0 0.00 0.00 0.00 75 1017.0
20260506043602 8 102 0.0 0.0 0.00 0.00 0.00 75 1017.0
20260506043402 6 70 1.6 0.0 0.00 0.00 0.00 82 1017.0
20260506043203 6 70 1.6 0.0 0.00 0.00 0.00 82 1017.0
20260506043003 6 70 1.6 0.0 0.00 0.00 0.00 82 1017.0
20260506042802 6 70 1.6 0.0 0.00 0.00 0.00 82 1017.0
20260506042602 6 70 1.6 0.0 0.00 0.00 0.00 82 1017.0
20260506042402 6 70 1.6 0.0 0.00 0.00 0.00 83 1017.0
20260506042202 6 70 1.6 0.0 0.00 0.00 0.00 83 1017.0
20260506042002 6 70 1.6 0.0 0.00 0.00 0.00 83 1017.0
20260506041802 6 70 1.6 0.0 0.00 0.00 0.00 83 1017.0
20260506041603 6 70 1.6 0.0 0.00 0.00 0.00 83 1017.0
20260506041403 6 70 1.6 0.0 0.00 0.00 0.00 83 1017.0
20260506041202 6 70 1.6 0.0 0.00 0.00 0.00 83 1017.0
20260506041002 6 70 1.6 0.0 0.00 0.00 0.00 82 1017.0
20260506040802 6 70 1.6 0.0 0.00 0.00 0.00 82 1017.0
20260506040602 6 70 1.6 0.0 0.00 0.00 0.00 82 1017.0
20260506040402 6 70 1.6 0.0 0.00 0.00 0.00 82 1017.0
20260506040202 6 70 1.6 0.0 0.00 0.00 0.00 82 1017.0
20260506040003 6 70 1.6 0.0 0.00 0.00 0.00 82 1017.0
20260506035803 6 70 1.6 0.0 0.00 0.00 0.00 82 1017.0
20260506035603 6 70 1.6 0.0 0.00 0.00 0.00 82 1017.0
20260506035402 6 70 1.6 0.0 0.00 0.00 0.00 82 1017.0
20260506035202 6 70 1.6 0.0 0.00 0.00 0.00 82 1017.0
20260506035002 6 70 1.6 0.0 0.00 0.00 0.00 82 1017.0
20260506034802 6 47 1.6 0.0 0.00 0.00 0.00 84 1017.0
20260506034602 6 47 1.6 0.0 0.00 0.00 0.00 84 1017.0
20260506034403 6 47 1.6 0.0 0.00 0.00 0.00 84 1017.0
20260506034203 6 47 1.6 0.0 0.00 0.00 0.00 84 1017.0
20260506034002 6 47 1.6 0.0 0.00 0.00 0.00 84 1017.0
20260506033802 6 47 1.6 0.0 0.00 0.00 0.00 84 1017.0
20260506033602 6 47 1.6 0.0 0.00 0.00 0.00 84 1017.0
20260506033402 6 47 1.6 0.0 0.00 0.00 0.00 84 1017.0
20260506033202 6 47 1.6 0.0 0.00 0.00 0.00 84 1017.0
20260506033002 6 47 1.6 0.0 0.00 0.00 0.00 84 1017.0
20260506032803 6 47 1.6 0.0 0.00 0.00 0.00 84 1017.0
20260506032603 6 47 1.6 0.0 0.00 0.00 0.00 84 1017.0
20260506032402 5 47 1.6 0.0 0.00 0.00 0.00 83 1017.0
20260506032202 5 47 1.6 0.0 0.00 0.00 0.00 83 1017.0
20260506032002 5 47 1.6 0.0 0.00 0.00 0.00 83 1017.0
20260506031802 5 47 1.6 0.0 0.00 0.00 0.00 83 1017.0
20260506031602 5 47 1.6 0.0 0.00 0.00 0.00 83 1017.0
20260506031403 5 47 1.6 0.0 0.00 0.00 0.00 83 1017.0
20260506031202 5 47 1.6 0.0 0.00 0.00 0.00 83 1017.0
20260506031002 5 47 1.6 0.0 0.00 0.00 0.00 83 1017.0
20260506030802 5 47 1.6 0.0 0.00 0.00 0.00 83 1017.0
20260506030602 6 47 1.6 0.0 0.00 0.00 0.00 83 1017.0
20260506030402 6 47 1.6 0.0 0.00 0.00 0.00 83 1017.0
20260506030202 6 47 1.6 0.0 0.00 0.00 0.00 83 1017.0
20260506030002 6 47 1.6 0.0 0.00 0.00 0.00 83 1017.0
20260506025803 6 47 1.6 0.0 0.00 0.00 0.00 83 1017.0
20260506025603 6 47 1.6 0.0 0.00 0.00 0.00 83 1017.0
20260506025402 6 47 1.6 0.0 0.00 0.00 0.00 83 1017.0
20260506025202 6 47 1.6 0.0 0.00 0.00 0.00 83 1017.0
20260506025002 6 47 1.6 0.0 0.00 0.00 0.00 83 1017.0
20260506024802 5 58 1.6 0.0 0.00 0.00 0.00 83 1017.0
20260506024602 5 58 1.6 0.0 0.00 0.00 0.00 83 1017.0
20260506024402 5 58 1.6 0.0 0.00 0.00 0.00 83 1017.0
20260506024203 5 58 1.6 0.0 0.00 0.00 0.00 83 1017.0
20260506024003 5 58 1.6 0.0 0.00 0.00 0.00 83 1017.0
20260506023803 5 58 1.6 0.0 0.00 0.00 0.00 83 1017.0
20260506023602 5 58 1.6 0.0 0.00 0.00 0.00 83 1017.0
20260506023402 5 58 1.6 0.0 0.00 0.00 0.00 83 1017.0
20260506023202 5 58 1.6 0.0 0.00 0.00 0.00 83 1017.0
20260506023002 5 58 1.6 0.0 0.00 0.00 0.00 83 1017.0
20260506022802 5 58 1.6 0.0 0.00 0.00 0.00 83 1017.0
20260506022603 5 58 1.6 0.0 0.00 0.00 0.00 83 1017.0
20260506022403 6 58 1.6 0.0 0.00 0.00 0.00 83 1017.0
20260506022202 6 58 1.6 0.0 0.00 0.00 0.00 83 1017.0
20260506022002 6 58 1.6 0.0 0.00 0.00 0.00 83 1017.0
20260506021802 6 58 1.6 0.0 0.00 0.00 0.00 83 1017.0
20260506021402 6 58 3.2 0.0 0.00 0.00 0.00 83 1017.0
20260506021203 6 58 3.2 0.0 0.00 0.00 0.00 83 1017.0
20260506021003 6 58 3.2 0.0 0.00 0.00 0.00 83 1017.0
20260506020803 6 58 3.2 0.0 0.00 0.00 0.00 83 1017.0
20260506020602 6 58 3.2 0.0 0.00 0.00 0.00 83 1017.0
20260506020402 5 56 1.6 0.0 0.00 0.00 0.00 81 1017.0
20260506020202 5 56 1.6 0.0 0.00 0.00 0.00 81 1017.0
20260506020002 5 56 1.6 0.0 0.00 0.00 0.00 81 1017.0
20260506015802 5 56 1.6 0.0 0.00 0.00 0.00 81 1017.0
20260506015602 5 56 1.6 0.0 0.00 0.00 0.00 81 1017.0
20260506015403 5 56 1.6 0.0 0.00 0.00 0.00 81 1017.0
20260506015202 5 56 1.6 0.0 0.00 0.00 0.00 81 1017.0
20260506015002 5 56 1.6 0.0 0.00 0.00 0.00 81 1017.0
20260506014802 5 56 1.6 0.0 0.00 0.00 0.00 81 1017.0
20260506014602 6 56 1.6 0.0 0.00 0.00 0.00 81 1017.0
20260506014402 6 56 1.6 0.0 0.00 0.00 0.00 81 1017.0
20260506014202 6 56 1.6 0.0 0.00 0.00 0.00 81 1017.0
20260506014003 6 56 1.6 0.0 0.00 0.00 0.00 81 1017.0
20260506013803 6 56 1.6 0.0 0.00 0.00 0.00 81 1017.0
20260506013602 6 56 1.6 0.0 0.00 0.00 0.00 81 1017.0
20260506013402 6 56 3.2 0.0 0.00 0.00 0.00 81 1017.0
20260506013202 6 56 3.2 0.0 0.00 0.00 0.00 81 1017.0
20260506013002 6 56 3.2 0.0 0.00 0.00 0.00 81 1017.0
20260506012802 6 56 3.2 0.0 0.00 0.00 0.00 81 1017.0
20260506012602 6 56 3.2 0.0 0.00 0.00 0.00 81 1017.0
20260506012402 7 56 4.8 0.0 0.00 0.00 0.00 81 1017.0
20260506012202 7 56 4.8 0.0 0.00 0.00 0.00 81 1017.0
20260506012003 7 56 4.8 0.0 0.00 0.00 0.00 81 1017.0
20260506011802 7 56 4.8 0.0 0.00 0.00 0.00 81 1017.0
20260506011602 5 51 1.6 0.0 0.00 0.00 0.00 78 1017.0
20260506011402 5 51 1.6 0.0 0.00 0.00 0.00 78 1017.0
20260506011202 5 51 1.6 0.0 0.00 0.00 0.00 78 1017.0
20260506011002 5 51 1.6 0.0 0.00 0.00 0.00 78 1017.0
20260506010802 5 51 1.6 0.0 0.00 0.00 0.00 78 1017.0
20260506010603 6 51 1.6 0.0 0.00 0.00 0.00 78 1017.0
20260506010403 6 51 1.6 0.0 0.00 0.00 0.00 78 1017.0
20260506010203 6 51 1.6 0.0 0.00 0.00 0.00 78 1017.0
20260506010002 6 51 1.6 0.0 0.00 0.00 0.00 78 1017.0
20260506005802 6 51 1.6 0.0 0.00 0.00 0.00 78 1017.0
20260506005602 6 51 1.6 0.0 0.00 0.00 0.00 78 1017.0
20260506005402 6 51 1.6 0.0 0.00 0.00 0.00 78 1017.0
20260506005202 6 51 1.6 0.0 0.00 0.00 0.00 78 1017.0
20260506005003 6 51 1.6 0.0 0.00 0.00 0.00 78 1017.0
20260506004803 7 51 1.6 0.0 0.00 0.00 0.00 78 1017.0
20260506004602 7 51 1.6 0.0 0.00 0.00 0.00 78 1017.0
20260506004402 7 51 1.6 0.0 0.00 0.00 0.00 78 1017.0
20260506004202 7 51 1.6 0.0 0.00 0.00 0.00 78 1017.0
20260506004002 7 51 1.6 0.0 0.00 0.00 0.00 78 1017.0
20260506003802 7 51 1.6 0.0 0.00 0.00 0.00 78 1017.0
20260506003602 7 51 3.2 0.0 0.00 0.00 0.00 78 1017.0
20260506003402 7 51 3.2 0.0 0.00 0.00 0.00 78 1017.0
20260506003203 7 51 3.2 0.0 0.00 0.00 0.00 78 1017.0
20260506003003 7 51 3.2 0.0 0.00 0.00 0.00 78 1017.0
20260506002803 7 51 3.2 0.0 0.00 0.00 0.00 78 1017.0
20260506002602 7 51 3.2 0.0 0.00 0.00 0.00 78 1017.0
20260506002403 8 51 4.8 0.0 0.00 0.00 0.00 78 1017.0
20260506002202 8 51 4.8 0.0 0.00 0.00 0.00 78 1017.0
20260506002002 8 51 4.8 0.0 0.00 0.00 0.00 78 1017.0
20260506001802 7 51 1.6 0.0 0.00 0.00 0.00 77 1017.0
20260506001603 7 51 1.6 0.0 0.00 0.00 0.00 77 1017.0
20260506001404 6 51 1.6 0.0 0.00 0.00 0.00 77 1017.0
20260506001202 6 51 1.6 0.0 0.00 0.00 0.00 77 1017.0
20260506001002 7 51 1.6 0.0 0.00 0.00 0.00 77 1017.0
20260506000802 7 51 1.6 0.0 0.00 0.00 0.00 77 1017.0
20260506000602 7 51 3.2 0.0 0.00 0.00 0.00 77 1017.0
20260506000402 7 51 3.2 0.0 0.00 0.00 0.00 77 1017.0
20260506000204 7 51 3.2 0.0 0.00 0.00 0.00 77 1017.0
20260506000003 7 51 3.2 0.0 0.00 0.00 0.00 77 1017.0
20260505235803 7 51 3.2 0.0 0.00 0.00 0.00 77 1017.0
20260505235602 7 51 3.2 0.0 0.00 0.00 0.00 77 1017.0
20260505235402 7 51 3.2 0.0 0.00 0.00 0.00 77 1017.0
20260505235202 7 51 3.2 0.0 0.00 0.00 0.00 77 1017.0
20260505235002 8 51 4.8 0.0 0.00 0.00 0.00 77 1017.0
20260505234802 8 51 4.8 0.0 0.00 0.00 0.00 77 1017.0
20260505234603 8 51 4.8 0.0 0.00 0.00 0.00 77 1017.0
20260505234403 8 51 4.8 0.0 0.00 0.00 0.00 77 1017.0
20260505234203 8 51 4.8 0.0 0.00 0.00 0.00 77 1017.0
20260505234002 8 51 4.8 0.0 0.00 0.00 0.00 77 1017.0
20260505233802 6 64 1.6 0.0 0.00 0.00 0.00 76 1017.0
20260505233602 6 64 1.6 0.0 0.00 0.00 0.00 76 1017.0
20260505233402 7 64 1.6 0.0 0.00 0.00 0.00 76 1017.0
20260505233202 7 64 1.6 0.0 0.00 0.00 0.00 76 1017.0
20260505233003 7 64 1.6 0.0 0.00 0.00 0.00 76 1017.0
20260505232803 7 64 1.6 0.0 0.00 0.00 0.00 76 1017.0
20260505232602 7 64 1.6 0.0 0.00 0.00 0.00 76 1017.0
20260505232403 7 64 1.6 0.0 0.00 0.00 0.00 76 1017.0
20260505232202 7 64 3.2 0.0 0.00 0.00 0.00 76 1017.0
20260505232002 7 64 3.2 0.0 0.00 0.00 0.00 76 1017.0
20260505231802 7 64 3.2 0.0 0.00 0.00 0.00 76 1017.0
20260505231602 8 64 4.8 0.0 0.00 0.00 0.00 76 1017.0
20260505231403 8 64 4.8 0.0 0.00 0.00 0.00 76 1017.0
20260505231203 8 64 4.8 0.0 0.00 0.00 0.00 76 1017.0
20260505231002 8 64 4.8 0.0 0.00 0.00 0.00 76 1017.0
20260505230802 8 64 4.8 0.0 0.00 0.00 0.00 76 1017.0
20260505230602 8 64 4.8 0.0 0.00 0.00 0.00 76 1017.0
20260505230402 6 72 6.4 0.0 0.00 0.00 0.00 74 1017.0
20260505230202 6 72 6.4 0.0 0.00 0.00 0.00 74 1017.0
20260505230002 6 72 6.4 0.0 0.00 0.00 0.00 74 1017.0
20260505225802 6 72 6.4 0.0 0.00 0.00 0.00 74 1017.0
20260505225603 6 72 6.4 0.0 0.00 0.00 0.00 74 1017.0
20260505225402 6 72 6.4 0.0 0.00 0.00 0.00 74 1017.0
20260505225202 7 72 6.4 0.0 0.00 0.00 0.00 74 1017.0
20260505225002 7 72 6.4 0.0 0.00 0.00 0.00 74 1017.0
20260505224802 7 72 6.4 0.0 0.00 0.00 0.00 74 1017.0
20260505224602 7 72 6.4 0.0 0.00 0.00 0.00 74 1017.0
20260505224402 7 72 6.4 0.0 0.00 0.00 0.00 74 1017.0
20260505224203 7 72 6.4 0.0 0.00 0.00 0.00 74 1017.0
20260505224002 7 72 6.4 0.0 0.00 0.00 0.00 74 1017.0
20260505223802 7 72 6.4 0.0 0.00 0.00 0.00 74 1017.0
20260505223602 8 72 6.4 0.0 0.00 0.00 0.00 74 1017.0
20260505223402 8 72 6.4 0.0 0.00 0.00 0.00 74 1017.0
20260505223202 8 72 6.4 0.0 0.00 0.00 0.00 74 1017.0
20260505223002 8 72 6.4 0.0 0.00 0.00 0.00 74 1017.0
20260505222803 8 72 6.4 0.0 0.00 0.00 0.00 74 1017.0
20260505222603 8 72 6.4 0.0 0.00 0.00 0.00 74 1017.0
20260505222402 6 72 6.4 0.0 0.00 0.00 0.00 71 1017.0
20260505222202 6 72 6.4 0.0 0.00 0.00 0.00 71 1017.0
20260505222002 6 72 6.4 0.0 0.00 0.00 0.00 71 1017.0
20260505221802 6 72 6.4 0.0 0.00 0.00 0.00 71 1017.0
20260505221602 6 72 6.4 0.0 0.00 0.00 0.00 71 1017.0
20260505221402 6 72 6.4 0.0 0.00 0.00 0.00 71 1017.0
20260505221203 6 72 6.4 0.0 0.00 0.00 0.00 71 1017.0
20260505221002 6 72 6.4 0.0 0.00 0.00 0.00 71 1017.0
20260505220802 6 72 6.4 0.0 0.00 0.00 0.00 71 1017.0
20260505220602 6 72 6.4 0.0 0.00 0.00 0.00 71 1017.0
20260505220402 7 72 6.4 0.0 0.00 0.00 0.00 71 1017.0
20260505220202 7 72 6.4 0.0 0.00 0.00 0.00 71 1017.0
20260505220002 7 72 6.4 0.0 0.00 0.00 0.00 71 1017.0
20260505215802 7 72 6.4 0.0 0.00 0.00 0.00 71 1017.0
20260505215603 7 72 6.4 0.0 0.00 0.00 0.00 71 1017.0
20260505215403 7 72 6.4 0.0 0.00 0.00 0.00 71 1017.0
20260505215202 7 72 6.4 0.0 0.00 0.00 0.00 71 1017.0
20260505215002 7 72 6.4 0.0 0.00 0.00 0.00 71 1017.0
20260505214802 7 72 6.4 0.0 0.00 0.00 0.00 71 1017.0
20260505214602 7 72 6.4 0.0 0.00 0.00 0.00 71 1017.0
20260505214402 6 89 8.0 0.0 0.00 0.00 0.00 54 1017.0
20260505214202 6 89 8.0 0.0 0.00 0.00 0.00 54 1017.0
20260505214004 6 89 8.0 0.0 0.00 0.00 0.00 54 1017.0
20260505213803 6 89 8.0 0.0 0.00 0.00 0.00 54 1017.0
20260505213602 6 89 8.0 0.0 0.00 0.00 0.00 54 1017.0
20260505213403 6 89 8.0 0.0 0.00 0.00 0.00 54 1017.0
20260505213202 6 89 8.0 0.0 0.00 0.00 0.00 54 1017.0
20260505213002 6 89 8.0 0.0 0.00 0.00 0.00 54 1017.0
20260505212802 6 89 8.0 0.0 0.00 0.00 0.00 54 1017.0
20260505212602 6 89 8.0 0.0 0.00 0.00 0.00 54 1017.0
20260505212403 6 89 8.0 0.0 0.00 0.00 0.00 54 1017.0
20260505212202 7 89 8.0 0.0 0.00 0.00 0.00 54 1017.0
20260505212003 7 89 8.0 0.0 0.00 0.00 0.00 54 1017.0
20260505211802 7 89 8.0 0.0 0.00 0.00 0.00 54 1017.0
20260505211602 7 89 8.0 0.0 0.00 0.00 0.00 54 1017.0
20260505211402 7 89 8.0 0.0 0.00 0.00 0.00 54 1017.0
20260505211202 7 89 8.0 0.0 0.00 0.00 0.00 54 1017.0
20260505211002 7 89 8.0 0.0 0.00 0.00 0.00 54 1017.0
20260505210803 7 89 8.0 0.0 0.00 0.00 0.00 54 1017.0
20260505210602 7 89 8.0 0.0 0.00 0.00 0.00 54 1017.0
20260505210402 7 89 8.0 0.0 0.00 0.00 0.00 54 1017.0
20260505210202 8 89 8.0 0.0 0.00 0.00 0.00 54 1017.0
20260505210004 8 89 8.0 0.0 0.00 0.00 0.00 54 1017.0
20260505205802 8 89 8.0 0.0 0.00 0.00 0.00 54 1017.0
20260505205602 8 89 8.0 0.0 0.00 0.00 0.00 54 1017.0
20260505205402 8 89 8.0 0.0 0.00 0.00 0.00 54 1017.0
20260505205203 8 89 8.0 0.0 0.00 0.00 0.00 54 1017.0
20260505205003 8 89 8.0 0.0 0.00 0.00 0.00 54 1017.0
20260505204802 9 89 8.0 0.0 0.00 0.00 0.00 54 1017.0
20260505204602 9 89 8.0 0.0 0.00 0.00 0.00 54 1017.0
20260505204402 9 89 8.0 0.0 0.00 0.00 0.00 54 1017.0
20260505204202 9 89 8.0 0.0 0.00 0.00 0.00 54 1017.0
20260505204002 9 89 8.0 0.0 0.00 0.00 0.00 54 1017.0
20260505203802 10 89 9.7 0.0 0.00 0.00 0.00 54 1017.0
20260505203603 10 89 9.7 0.0 0.00 0.00 0.00 54 1017.0
20260505203402 10 89 9.7 0.0 0.00 0.00 0.00 54 1017.0
20260505203202 10 89 9.7 0.0 0.00 0.00 0.00 54 1017.0
20260505203002 10 89 9.7 0.0 0.00 0.00 0.00 54 1017.0
20260505202802 10 89 9.7 0.0 0.00 0.00 0.00 54 1017.0
20260505202602 7 115 12.9 0.0 0.00 0.00 0.00 50 1017.0
20260505202402 7 115 12.9 0.0 0.00 0.00 0.00 50 1017.0
20260505202203 7 115 12.9 0.0 0.00 0.00 0.00 50 1017.0
20260505202003 7 115 12.9 0.0 0.00 0.00 0.00 50 1017.0
20260505201802 7 115 12.9 0.0 0.00 0.00 0.00 50 1017.0
20260505201603 7 115 12.9 0.0 0.00 0.00 0.00 50 1017.0
20260505201402 7 115 12.9 0.0 0.00 0.00 0.00 50 1017.0
20260505201202 7 115 12.9 0.0 0.00 0.00 0.00 50 1017.0
20260505201002 7 115 12.9 0.0 0.00 0.00 0.00 50 1017.0
20260505200802 7 115 12.9 0.0 0.00 0.00 0.00 50 1017.0
20260505200603 7 115 12.9 0.0 0.00 0.00 0.00 50 1017.0
20260505200402 7 115 12.9 0.0 0.00 0.00 0.00 50 1017.0
20260505200202 8 115 12.9 0.0 0.00 0.00 0.00 50 1017.0
20260505200002 8 115 12.9 0.0 0.00 0.00 0.00 50 1017.0
20260505195802 7 115 12.9 0.0 0.00 0.00 0.00 50 1017.0
20260505195602 8 115 12.9 0.0 0.00 0.00 0.00 50 1017.0
20260505195402 8 115 12.9 0.0 0.00 0.00 0.00 50 1017.0
20260505195202 8 115 12.9 0.0 0.00 0.00 0.00 50 1017.0
20260505195003 8 115 12.9 0.0 0.00 0.00 0.00 50 1017.0
20260505194803 8 115 12.9 0.0 0.00 0.00 0.00 50 1017.0
20260505194602 8 115 12.9 0.0 0.00 0.00 0.00 50 1017.0
20260505194402 8 115 12.9 0.0 0.00 0.00 0.00 50 1017.0
20260505194202 8 115 12.9 0.0 0.00 0.00 0.00 50 1017.0
20260505194002 9 115 12.9 0.0 0.00 0.00 0.00 50 1017.0
20260505193802 9 115 12.9 0.0 0.00 0.00 0.00 50 1017.0
20260505193603 10 115 12.9 0.0 0.00 0.00 0.00 50 1017.0
20260505193403 10 115 12.9 0.0 0.00 0.00 0.00 50 1017.0
20260505193203 10 115 12.9 0.0 0.00 0.00 0.00 50 1017.0
20260505193003 10 115 12.9 0.0 0.00 0.00 0.00 50 1017.0
20260505192802 10 115 12.9 0.0 0.00 0.00 0.00 50 1017.0
20260505192602 10 115 12.9 0.0 0.00 0.00 0.00 50 1017.0
20260505192402 10 115 12.9 0.0 0.00 0.00 0.00 50 1017.0
20260505192202 10 115 12.9 0.0 0.00 0.00 0.00 50 1017.0
20260505192002 10 115 12.9 0.0 0.00 0.00 0.00 50 1017.0
20260505191803 10 115 12.9 0.0 0.00 0.00 0.00 50 1017.0
20260505191603 10 115 12.9 0.0 0.00 0.00 0.00 50 1017.0
20260505191403 10 115 12.9 0.0 0.00 0.00 0.00 50 1017.0
20260505191202 11 115 12.9 0.0 0.00 0.00 0.00 50 1017.0
20260505191002 11 115 12.9 0.0 0.00 0.00 0.00 50 1017.0
20260505190802 11 115 12.9 0.0 0.00 0.00 0.00 50 1017.0
20260505190602 11 115 12.9 0.0 0.00 0.00 0.00 50 1017.0
20260505190402 11 115 12.9 0.0 0.00 0.00 0.00 50 1017.0
20260505190203 11 115 12.9 0.0 0.00 0.00 0.00 50 1017.0
20260505190003 11 115 12.9 0.0 0.00 0.00 0.00 50 1017.0
20260505185802 11 115 12.9 0.0 0.00 0.00 0.00 50 1017.0
20260505185602 11 115 12.9 0.0 0.00 0.00 0.00 50 1017.0
20260505185402 11 115 12.9 0.0 0.00 0.00 0.00 50 1017.0
20260505185202 11 115 12.9 0.0 0.00 0.00 0.00 50 1017.0
20260505185002 12 115 12.9 0.0 0.00 0.00 0.00 50 1017.0
20260505184802 12 115 12.9 0.0 0.00 0.00 0.00 50 1017.0
20260505184606 12 115 12.9 0.0 0.00 0.00 0.00 50 1017.0
20260505184413 12 115 12.9 0.0 0.00 0.00 0.00 50 1017.0
20260505184203 12 115 12.9 0.0 0.00 0.00 0.00 50 1017.0
20260505184003 12 115 12.9 0.0 0.00 0.00 0.00 50 1017.0
20260505183802 12 115 12.9 0.0 0.00 0.00 0.00 50 1016.0
20260505183602 12 115 12.9 0.0 0.00 0.00 0.00 50 1016.0
20260505183402 12 115 12.9 0.0 0.00 0.00 0.00 50 1016.0
20260505183202 12 115 12.9 0.0 0.00 0.00 0.00 50 1016.0
20260505183002 12 115 12.9 0.0 0.00 0.00 0.00 50 1016.0
20260505182602 13 115 12.9 0.0 0.00 0.00 0.00 50 1016.0
20260505182402 13 115 12.9 0.0 0.00 0.00 0.00 50 1016.0
20260505182202 13 115 12.9 0.0 0.00 0.00 0.00 50 1016.0
20260505182002 13 115 12.9 0.0 0.00 0.00 0.00 50 1016.0
20260505181802 13 115 12.9 0.0 0.00 0.00 0.00 50 1016.0
20260505181603 10 91 11.3 0.0 0.00 0.00 0.00 47 1016.0
20260505181403 10 91 11.3 0.0 0.00 0.00 0.00 47 1016.0
20260505181202 10 91 11.3 0.0 0.00 0.00 0.00 47 1016.0
20260505181002 10 91 11.3 0.0 0.00 0.00 0.00 47 1016.0
20260505180802 10 91 11.3 0.0 0.00 0.00 0.00 47 1016.0
20260505180602 10 91 11.3 0.0 0.00 0.00 0.00 47 1016.0
20260505180402 10 91 11.3 0.0 0.00 0.00 0.00 47 1016.0
20260505180202 10 91 11.3 0.0 0.00 0.00 0.00 47 1016.0
20260505180003 10 91 11.3 0.0 0.00 0.00 0.00 47 1016.0
20260505175804 10 91 11.3 0.0 0.00 0.00 0.00 47 1016.0
20260505175603 10 91 11.3 0.0 0.00 0.00 0.00 47 1016.0
20260505175402 10 91 11.3 0.0 0.00 0.00 0.00 47 1016.0
20260505175202 10 91 11.3 0.0 0.00 0.00 0.00 47 1016.0
20260505175003 11 91 11.3 0.0 0.00 0.00 0.00 47 1016.0
20260505174802 11 91 11.3 0.0 0.00 0.00 0.00 47 1016.0
20260505174602 11 91 11.3 0.0 0.00 0.00 0.00 47 1016.0
20260505174403 11 91 11.3 0.0 0.00 0.00 0.00 47 1016.0
20260505174203 11 91 11.3 0.0 0.00 0.00 0.00 47 1016.0
20260505174002 11 91 11.3 0.0 0.00 0.00 0.00 47 1016.0
20260505173802 11 91 11.3 0.0 0.00 0.00 0.00 47 1015.0
20260505173602 11 91 11.3 0.0 0.00 0.00 0.00 47 1015.0
20260505173402 11 91 11.3 0.0 0.00 0.00 0.00 47 1015.0
20260505173202 11 91 11.3 0.0 0.00 0.00 0.00 47 1015.0
20260505173002 11 91 11.3 0.0 0.00 0.00 0.00 47 1015.0
20260505172803 11 91 11.3 0.0 0.00 0.00 0.00 47 1015.0
20260505172602 12 91 11.3 0.0 0.00 0.00 0.00 47 1015.0
20260505172402 12 91 11.3 0.0 0.00 0.00 0.00 47 1015.0
20260505172202 12 91 11.3 0.0 0.00 0.00 0.00 47 1015.0
20260505172002 12 91 11.3 0.0 0.00 0.00 0.00 47 1015.0
20260505171802 12 91 11.3 0.0 0.00 0.00 0.00 47 1015.0
20260505171602 12 91 11.3 0.0 0.00 0.00 0.00 47 1015.0
20260505171402 12 91 11.3 0.0 0.00 0.00 0.00 47 1015.0
20260505171203 12 91 11.3 0.0 0.00 0.00 0.00 47 1015.0
20260505171003 13 91 11.3 0.0 0.00 0.00 0.00 47 1015.0
20260505170802 13 91 11.3 0.0 0.00 0.00 0.00 47 1015.0
20260505170602 13 91 11.3 0.0 0.00 0.00 0.00 47 1015.0
20260505170402 13 91 11.3 0.0 0.00 0.00 0.00 47 1015.0
20260505170202 13 91 11.3 0.0 0.00 0.00 0.00 47 1015.0
20260505170002 13 91 11.3 0.0 0.00 0.00 0.00 47 1015.0
20260505165802 13 91 11.3 0.0 0.00 0.00 0.00 47 1015.0
20260505165603 13 91 11.3 0.0 0.00 0.00 0.00 47 1015.0
20260505165403 13 91 11.3 0.0 0.00 0.00 0.00 47 1015.0
20260505165203 13 91 11.3 0.0 0.00 0.00 0.00 47 1015.0
20260505165002 13 91 11.3 0.0 0.00 0.00 0.00 47 1015.0
20260505164802 13 91 11.3 0.0 0.00 0.00 0.00 47 1015.0
20260505164602 14 91 11.3 0.0 0.00 0.00 0.00 47 1015.0
20260505164402 14 91 11.3 0.0 0.00 0.00 0.00 47 1015.0
20260505164202 15 91 11.3 0.0 0.00 0.00 0.00 47 1015.0
20260505164002 15 91 11.3 0.0 0.00 0.00 0.00 47 1015.0
20260505163803 15 91 11.3 0.0 0.00 0.00 0.00 47 1015.0
20260505163603 15 91 11.3 0.0 0.00 0.00 0.00 47 1015.0
20260505163202 15 91 11.3 0.0 0.00 0.00 0.00 47 1015.0
20260505163002 15 91 11.3 0.0 0.00 0.00 0.00 47 1015.0
20260505162802 15 91 11.3 0.0 0.00 0.00 0.00 47 1015.0
20260505162602 15 91 11.3 0.0 0.00 0.00 0.00 47 1015.0
20260505162403 15 91 11.3 0.0 0.00 0.00 0.00 47 1015.0
20260505162203 15 91 11.3 0.0 0.00 0.00 0.00 47 1015.0
20260505162002 15 91 11.3 0.0 0.00 0.00 0.00 47 1015.0
20260505161802 16 91 11.3 0.0 0.00 0.00 0.00 47 1015.0
20260505161602 16 91 11.3 0.0 0.00 0.00 0.00 47 1015.0
20260505161402 16 91 11.3 0.0 0.00 0.00 0.00 47 1015.0
20260505161202 16 91 11.3 0.0 0.00 0.00 0.00 47 1015.0
20260505161002 16 91 11.3 0.0 0.00 0.00 0.00 47 1015.0
20260505160803 16 91 11.3 0.0 0.00 0.00 0.00 47 1015.0
20260505160603 16 91 11.3 0.0 0.00 0.00 0.00 47 1015.0
20260505160403 16 91 11.3 0.0 0.00 0.00 0.00 47 1015.0
20260505160203 16 91 11.3 0.0 0.00 0.00 0.00 47 1015.0
20260505153203 18 91 11.3 0.0 0.00 0.00 0.00 47 1015.0
20260505153002 18 91 11.3 0.0 0.00 0.00 0.00 47 1015.0
20260505152802 18 91 11.3 0.0 0.00 0.00 0.00 47 1015.0
20260505152602 18 91 11.3 0.0 0.00 0.00 0.00 47 1015.0
20260505152403 16 68 11.3 0.0 0.00 0.00 0.00 46 1015.0
20260505152202 16 68 11.3 0.0 0.00 0.00 0.00 46 1015.0
20260505152002 16 68 11.3 0.0 0.00 0.00 0.00 46 1015.0
20260505151803 16 68 11.3 0.0 0.00 0.00 0.00 46 1015.0
20260505151603 16 68 11.3 0.0 0.00 0.00 0.00 46 1015.0
20260505151402 16 68 11.3 0.0 0.00 0.00 0.00 46 1015.0
20260505151202 17 68 11.3 0.0 0.00 0.00 0.00 46 1015.0
20260505151002 17 68 11.3 0.0 0.00 0.00 0.00 46 1015.0
20260505150802 17 68 11.3 0.0 0.00 0.00 0.00 46 1015.0
20260505150602 17 68 11.3 0.0 0.00 0.00 0.00 46 1015.0
20260505150402 17 68 11.3 0.0 0.00 0.00 0.00 46 1015.0
20260505150203 17 68 11.3 0.0 0.00 0.00 0.00 46 1015.0
20260505140402 17 51 11.3 0.0 0.00 0.00 0.00 46 1015.0
20260505140202 17 51 11.3 0.0 0.00 0.00 0.00 46 1015.0
20260505130202 18 51 11.3 0.0 0.00 0.00 0.00 46 1016.0
20260505125002 17 29 8.0 0.0 0.00 0.00 0.00 47 1016.0
20260505124802 17 29 8.0 0.0 0.00 0.00 0.00 47 1016.0
20260505124602 17 29 8.0 0.0 0.00 0.00 0.00 47 1016.0
20260505124402 18 29 8.0 0.0 0.00 0.00 0.00 47 1016.0
20260505124202 18 29 8.0 0.0 0.00 0.00 0.00 47 1016.0
20260505124003 18 29 8.0 0.0 0.00 0.00 0.00 47 1016.0
20260505123802 18 29 8.0 0.0 0.00 0.00 0.00 47 1016.0
20260505123602 18 29 8.0 0.0 0.00 0.00 0.00 47 1016.0
20260505123402 18 29 8.0 0.0 0.00 0.00 0.00 47 1016.0
20260505123202 18 29 8.0 0.0 0.00 0.00 0.00 47 1016.0
20260505123002 18 29 8.0 0.0 0.00 0.00 0.00 47 1016.0
20260505122802 18 29 8.0 0.0 0.00 0.00 0.00 47 1016.0
20260505122602 19 29 9.7 0.0 0.00 0.00 0.00 47 1016.0
20260505122403 19 29 9.7 0.0 0.00 0.00 0.00 47 1016.0
20260505122203 19 29 9.7 0.0 0.00 0.00 0.00 47 1016.0
20260505122002 19 29 9.7 0.0 0.00 0.00 0.00 47 1016.0
20260505121802 19 29 9.7 0.0 0.00 0.00 0.00 47 1016.0
20260505121602 19 29 9.7 0.0 0.00 0.00 0.00 47 1016.0
20260505121402 19 29 9.7 0.0 0.00 0.00 0.00 47 1016.0
20260505121202 17 39 8.0 0.0 0.00 0.00 0.00 47 1016.0
20260505121002 17 39 8.0 0.0 0.00 0.00 0.00 47 1016.0
20260505120803 17 39 8.0 0.0 0.00 0.00 0.00 47 1016.0
20260505120603 17 39 8.0 0.0 0.00 0.00 0.00 47 1016.0
20260505120402 17 39 8.0 0.0 0.00 0.00 0.00 47 1016.0
20260505120203 17 39 8.0 0.0 0.00 0.00 0.00 47 1016.0
20260505120003 18 39 8.0 0.0 0.00 0.00 0.00 47 1016.0
20260505115602 18 39 8.0 0.0 0.00 0.00 0.00 47 1016.0
20260505115402 18 39 8.0 0.0 0.00 0.00 0.00 47 1016.0
20260505115203 18 39 8.0 0.0 0.00 0.00 0.00 47 1016.0
20260505115002 18 39 8.0 0.0 0.00 0.00 0.00 47 1016.0
20260505114802 18 39 8.0 0.0 0.00 0.00 0.00 47 1016.0
20260505114602 18 39 8.0 0.0 0.00 0.00 0.00 47 1016.0
20260505114402 18 39 8.0 0.0 0.00 0.00 0.00 47 1016.0
20260505114202 19 39 8.0 0.0 0.00 0.00 0.00 47 1016.0
20260505114002 19 39 8.0 0.0 0.00 0.00 0.00 47 1016.0
20260505113802 19 39 8.0 0.0 0.00 0.00 0.00 47 1016.0
20260505113603 19 39 8.0 0.0 0.00 0.00 0.00 47 1016.0
20260505113403 19 39 8.0 0.0 0.00 0.00 0.00 47 1016.0
20260505113203 19 39 8.0 0.0 0.00 0.00 0.00 47 1016.0
20260505113002 20 39 8.0 0.0 0.00 0.00 0.00 47 1016.0
20260505112802 20 39 8.0 0.0 0.00 0.00 0.00 47 1016.0
20260505112602 20 39 8.0 0.0 0.00 0.00 0.00 47 1016.0
20260505112402 20 39 8.0 0.0 0.00 0.00 0.00 47 1016.0
20260505112202 20 39 8.0 0.0 0.00 0.00 0.00 47 1016.0
20260505112003 17 39 8.0 0.0 0.00 0.00 0.00 48 1016.0
20260505111803 17 39 8.0 0.0 0.00 0.00 0.00 48 1016.0
20260505111603 17 39 8.0 0.0 0.00 0.00 0.00 48 1016.0
20260505111402 17 39 8.0 0.0 0.00 0.00 0.00 48 1016.0
20260505111202 17 39 8.0 0.0 0.00 0.00 0.00 48 1016.0
20260505111002 17 39 8.0 0.0 0.00 0.00 0.00 48 1016.0
20260505110802 18 39 8.0 0.0 0.00 0.00 0.00 48 1016.0
20260505110602 18 39 8.0 0.0 0.00 0.00 0.00 48 1016.0
20260505110403 18 39 8.0 0.0 0.00 0.00 0.00 48 1016.0
20260505110203 18 39 8.0 0.0 0.00 0.00 0.00 48 1016.0
20260505102202 17 60 6.4 0.0 0.00 0.00 0.00 52 1016.0
20260505102002 17 60 6.4 0.0 0.00 0.00 0.00 52 1016.0
20260505101803 17 60 6.4 0.0 0.00 0.00 0.00 52 1016.0
20260505101603 18 60 6.4 0.0 0.00 0.00 0.00 52 1016.0
20260505101402 18 60 6.4 0.0 0.00 0.00 0.00 52 1016.0
20260505101202 18 60 6.4 0.0 0.00 0.00 0.00 52 1016.0
20260505101002 18 60 6.4 0.0 0.00 0.00 0.00 52 1016.0
20260505100802 18 60 6.4 0.0 0.00 0.00 0.00 52 1016.0
20260505100602 17 60 6.4 0.0 0.00 0.00 0.00 53 1016.0
20260505100402 17 60 6.4 0.0 0.00 0.00 0.00 53 1016.0
20260505100203 17 60 6.4 0.0 0.00 0.00 0.00 53 1016.0
20260505100002 17 60 6.4 0.0 0.00 0.00 0.00 53 1016.0
20260505095802 17 60 6.4 0.0 0.00 0.00 0.00 53 1016.0
20260505095602 17 60 6.4 0.0 0.00 0.00 0.00 53 1016.0
20260505095402 17 60 6.4 0.0 0.00 0.00 0.00 53 1016.0
20260505095202 18 60 6.4 0.0 0.00 0.00 0.00 53 1016.0
20260505095002 18 60 6.4 0.0 0.00 0.00 0.00 53 1016.0
20260505094803 18 60 6.4 0.0 0.00 0.00 0.00 53 1016.0
20260505094603 18 60 6.4 0.0 0.00 0.00 0.00 53 1016.0
20260505094402 18 60 6.4 0.0 0.00 0.00 0.00 53 1016.0
20260505094202 18 60 6.4 0.0 0.00 0.00 0.00 53 1016.0
20260505094002 17 65 1.6 0.0 0.00 0.00 0.00 59 1017.0
20260505093802 17 65 1.6 0.0 0.00 0.00 0.00 59 1017.0
20260505093602 17 65 1.6 0.0 0.00 0.00 0.00 59 1017.0
20260505093402 17 65 1.6 0.0 0.00 0.00 0.00 59 1017.0
20260505093202 17 65 1.6 0.0 0.00 0.00 0.00 59 1017.0
20260505093003 17 65 1.6 0.0 0.00 0.00 0.00 59 1017.0
20260505092803 17 65 3.2 0.0 0.00 0.00 0.00 59 1017.0
20260505092602 17 65 3.2 0.0 0.00 0.00 0.00 59 1017.0
20260505092403 17 65 3.2 0.0 0.00 0.00 0.00 59 1017.0
20260505092202 17 65 3.2 0.0 0.00 0.00 0.00 59 1017.0
20260505092002 17 65 3.2 0.0 0.00 0.00 0.00 59 1017.0
20260505091802 18 65 4.8 0.0 0.00 0.00 0.00 59 1017.0
20260505091602 18 65 4.8 0.0 0.00 0.00 0.00 59 1017.0
20260505091403 18 65 4.8 0.0 0.00 0.00 0.00 59 1017.0
20260505091202 18 65 4.8 0.0 0.00 0.00 0.00 59 1017.0
20260505091002 18 65 4.8 0.0 0.00 0.00 0.00 59 1017.0
20260505090802 18 65 4.8 0.0 0.00 0.00 0.00 59 1017.0
20260505090602 16 65 1.6 0.0 0.00 0.00 0.00 60 1017.0
20260505090402 16 65 1.6 0.0 0.00 0.00 0.00 60 1017.0
20260505090202 16 65 1.6 0.0 0.00 0.00 0.00 60 1017.0
20260505090002 16 65 1.6 0.0 0.00 0.00 0.00 60 1017.0
20260505085803 16 65 1.6 0.0 0.00 0.00 0.00 60 1017.0
20260505085602 16 65 1.6 0.0 0.00 0.00 0.00 60 1017.0
20260505085403 16 65 1.6 0.0 0.00 0.00 0.00 60 1017.0
20260505085202 16 65 1.6 0.0 0.00 0.00 0.00 60 1017.0
20260505085002 16 65 1.6 0.0 0.00 0.00 0.00 60 1017.0
20260505084802 16 65 1.6 0.0 0.00 0.00 0.00 60 1017.0
20260505084602 16 65 1.6 0.0 0.00 0.00 0.00 60 1017.0
20260505084402 17 65 3.2 0.0 0.00 0.00 0.00 60 1017.0
20260505084202 17 65 3.2 0.0 0.00 0.00 0.00 60 1017.0
20260505084003 17 65 4.8 0.0 0.00 0.00 0.00 60 1017.0
20260505083802 17 65 4.8 0.0 0.00 0.00 0.00 60 1017.0
20260505083602 17 65 4.8 0.0 0.00 0.00 0.00 60 1017.0
20260505083402 17 65 4.8 0.0 0.00 0.00 0.00 60 1017.0
20260505083202 17 65 4.8 0.0 0.00 0.00 0.00 60 1017.0
20260505083002 16 27 1.6 0.0 0.00 0.00 0.00 65 1017.0
20260505082802 16 27 1.6 0.0 0.00 0.00 0.00 65 1017.0
20260505082603 16 27 1.6 0.0 0.00 0.00 0.00 65 1017.0
20260505082402 16 27 1.6 0.0 0.00 0.00 0.00 65 1017.0
20260505082202 16 27 1.6 0.0 0.00 0.00 0.00 65 1017.0
20260505082002 16 27 1.6 0.0 0.00 0.00 0.00 65 1017.0
20260505081802 16 27 3.2 0.0 0.00 0.00 0.00 65 1017.0
20260505081602 16 27 3.2 0.0 0.00 0.00 0.00 65 1017.0
20260505081402 16 27 3.2 0.0 0.00 0.00 0.00 65 1017.0